sensor_id;sensor_type;location;lat;lon;timestamp;pressure;altitude;pressure_sealevel;temperature;humidity
44140;BME280;29803;51.048;4.686;2023-11-19T00:00:14;101012.41;;;15.05;100.00
44140;BME280;29803;51.048;4.686;2023-11-19T00:02:45;101022.84;;;15.08;100.00
44140;BME280;29803;51.048;4.686;2023-11-19T00:05:15;101019.38;;;15.14;100.00
44140;BME280;29803;51.048;4.686;2023-11-19T00:07:46;101015.59;;;15.09;100.00
44140;BME280;29803;51.048;4.686;2023-11-19T00:10:17;101017.38;;;15.01;100.00
44140;BME280;29803;51.048;4.686;2023-11-19T00:12:49;101012.81;;;15.02;100.00
44140;BME280;29803;51.048;4.686;2023-11-19T00:15:20;101008.56;;;14.93;100.00
44140;BME280;29803;51.048;4.686;2023-11-19T00:17:50;101003.69;;;15.03;100.00
44140;BME280;29803;51.048;4.686;2023-11-19T00:20:21;101002.75;;;14.96;100.00
44140;BME280;29803;51.048;4.686;2023-11-19T00:22:52;100990.75;;;14.98;100.00
44140;BME280;29803;51.048;4.686;2023-11-19T00:25:23;100990.16;;;15.03;100.00
44140;BME280;29803;51.048;4.686;2023-11-19T00:27:54;100987.09;;;15.06;100.00
44140;BME280;29803;51.048;4.686;2023-11-19T00:30:26;100983.63;;;15.12;100.00
44140;BME280;29803;51.048;4.686;2023-11-19T00:32:56;100992.16;;;15.16;100.00
44140;BME280;29803;51.048;4.686;2023-11-19T00:35:27;100981.88;;;15.05;100.00
44140;BME280;29803;51.048;4.686;2023-11-19T00:37:58;100978.28;;;14.97;100.00
44140;BME280;29803;51.048;4.686;2023-11-19T00:40:28;100975.44;;;15.06;100.00
44140;BME280;29803;51.048;4.686;2023-11-19T00:42:59;100977.38;;;15.12;100.00
44140;BME280;29803;51.048;4.686;2023-11-19T00:45:29;100963.94;;;14.97;100.00
44140;BME280;29803;51.048;4.686;2023-11-19T00:48:00;100964.03;;;15.10;100.00
44140;BME280;29803;51.048;4.686;2023-11-19T00:50:30;100969.91;;;15.14;100.00
44140;BME280;29803;51.048;4.686;2023-11-19T00:53:01;100974.84;;;15.10;100.00
44140;BME280;29803;51.048;4.686;2023-11-19T00:55:33;100976.09;;;15.08;100.00
44140;BME280;29803;51.048;4.686;2023-11-19T00:58:04;100972.41;;;15.15;100.00
44140;BME280;29803;51.048;4.686;2023-11-19T01:00:34;100978.06;;;14.99;100.00
44140;BME280;29803;51.048;4.686;2023-11-19T01:03:05;100988.63;;;15.15;100.00
44140;BME280;29803;51.048;4.686;2023-11-19T01:05:37;100982.13;;;15.10;100.00
44140;BME280;29803;51.048;4.686;2023-11-19T01:08:08;100988.81;;;15.14;100.00
44140;BME280;29803;51.048;4.686;2023-11-19T01:10:39;100972.16;;;15.10;100.00
44140;BME280;29803;51.048;4.686;2023-11-19T01:13:10;100977.13;;;15.07;100.00
44140;BME280;29803;51.048;4.686;2023-11-19T01:15:40;100968.88;;;15.15;100.00
44140;BME280;29803;51.048;4.686;2023-11-19T01:18:11;100953.13;;;15.18;100.00
44140;BME280;29803;51.048;4.686;2023-11-19T01:20:42;100962.78;;;15.27;100.00
44140;BME280;29803;51.048;4.686;2023-11-19T01:23:12;100958.19;;;15.28;100.00
44140;BME280;29803;51.048;4.686;2023-11-19T01:25:43;100966.50;;;15.26;100.00
44140;BME280;29803;51.048;4.686;2023-11-19T01:28:13;100970.41;;;15.24;100.00
44140;BME280;29803;51.048;4.686;2023-11-19T01:30:44;100971.66;;;15.21;100.00
44140;BME280;29803;51.048;4.686;2023-11-19T01:33:14;100965.78;;;15.18;100.00
44140;BME280;29803;51.048;4.686;2023-11-19T01:35:45;100964.97;;;15.17;100.00
44140;BME280;29803;51.048;4.686;2023-11-19T01:38:15;100957.03;;;15.16;100.00
44140;BME280;29803;51.048;4.686;2023-11-19T01:40:46;100948.63;;;15.04;100.00
44140;BME280;29803;51.048;4.686;2023-11-19T01:43:34;100967.84;;;15.16;100.00
44140;BME280;29803;51.048;4.686;2023-11-19T01:46:08;100967.25;;;15.20;100.00
44140;BME280;29803;51.048;4.686;2023-11-19T01:48:41;100971.78;;;15.13;100.00
44140;BME280;29803;51.048;4.686;2023-11-19T01:51:13;100969.28;;;15.12;100.00
44140;BME280;29803;51.048;4.686;2023-11-19T01:53:47;100981.69;;;15.06;100.00
44140;BME280;29803;51.048;4.686;2023-11-19T01:56:18;100979.81;;;15.07;100.00
44140;BME280;29803;51.048;4.686;2023-11-19T01:58:50;100973.59;;;15.06;100.00
44140;BME280;29803;51.048;4.686;2023-11-19T02:01:21;100968.94;;;15.00;100.00
44140;BME280;29803;51.048;4.686;2023-11-19T02:03:52;100976.41;;;14.98;100.00
44140;BME280;29803;51.048;4.686;2023-11-19T02:06:22;100970.94;;;14.91;100.00
44140;BME280;29803;51.048;4.686;2023-11-19T02:08:53;100962.13;;;14.83;100.00
44140;BME280;29803;51.048;4.686;2023-11-19T02:11:24;100965.31;;;14.71;100.00
44140;BME280;29803;51.048;4.686;2023-11-19T02:13:59;100968.84;;;14.72;100.00
44140;BME280;29803;51.048;4.686;2023-11-19T02:16:30;100964.66;;;14.69;100.00
44140;BME280;29803;51.048;4.686;2023-11-19T02:19:00;100969.31;;;14.61;100.00
44140;BME280;29803;51.048;4.686;2023-11-19T02:21:31;100973.88;;;14.60;100.00
44140;BME280;29803;51.048;4.686;2023-11-19T02:24:06;100974.72;;;14.61;100.00
44140;BME280;29803;51.048;4.686;2023-11-19T02:26:46;100969.53;;;14.59;100.00
44140;BME280;29803;51.048;4.686;2023-11-19T02:29:18;100966.28;;;14.49;100.00
44140;BME280;29803;51.048;4.686;2023-11-19T02:31:48;100963.28;;;14.59;100.00
44140;BME280;29803;51.048;4.686;2023-11-19T02:34:19;100953.38;;;14.66;100.00
44140;BME280;29803;51.048;4.686;2023-11-19T02:36:49;100963.19;;;14.67;100.00
44140;BME280;29803;51.048;4.686;2023-11-19T02:39:20;100964.19;;;14.66;100.00
44140;BME280;29803;51.048;4.686;2023-11-19T02:41:51;100955.72;;;14.69;100.00
44140;BME280;29803;51.048;4.686;2023-11-19T02:44:23;100958.16;;;14.64;100.00
44140;BME280;29803;51.048;4.686;2023-11-19T02:46:54;100954.44;;;14.50;100.00
44140;BME280;29803;51.048;4.686;2023-11-19T02:49:25;100950.09;;;14.49;100.00
44140;BME280;29803;51.048;4.686;2023-11-19T02:51:55;100945.72;;;14.48;100.00
44140;BME280;29803;51.048;4.686;2023-11-19T02:54:26;100935.94;;;14.47;100.00
44140;BME280;29803;51.048;4.686;2023-11-19T02:56:57;100941.97;;;14.34;100.00
44140;BME280;29803;51.048;4.686;2023-11-19T02:59:30;100949.03;;;14.35;100.00
44140;BME280;29803;51.048;4.686;2023-11-19T03:02:09;100948.88;;;14.37;100.00
44140;BME280;29803;51.048;4.686;2023-11-19T03:04:46;100948.59;;;14.32;100.00
44140;BME280;29803;51.048;4.686;2023-11-19T03:07:17;100949.81;;;14.29;100.00
44140;BME280;29803;51.048;4.686;2023-11-19T03:09:48;100951.56;;;14.37;100.00
44140;BME280;29803;51.048;4.686;2023-11-19T03:12:19;100959.94;;;14.42;100.00
44140;BME280;29803;51.048;4.686;2023-11-19T03:14:50;100954.91;;;14.54;100.00
44140;BME280;29803;51.048;4.686;2023-11-19T03:17:21;100940.59;;;14.53;100.00
44140;BME280;29803;51.048;4.686;2023-11-19T03:19:52;100935.66;;;14.42;100.00
44140;BME280;29803;51.048;4.686;2023-11-19T03:22:23;100936.78;;;14.33;100.00
44140;BME280;29803;51.048;4.686;2023-11-19T03:24:54;100937.69;;;14.40;100.00
44140;BME280;29803;51.048;4.686;2023-11-19T03:27:24;100926.19;;;14.31;100.00
44140;BME280;29803;51.048;4.686;2023-11-19T03:29:58;100935.75;;;14.34;100.00
44140;BME280;29803;51.048;4.686;2023-11-19T03:32:31;100935.66;;;14.42;100.00
44140;BME280;29803;51.048;4.686;2023-11-19T03:35:02;100933.41;;;14.31;100.00
44140;BME280;29803;51.048;4.686;2023-11-19T03:37:34;100937.16;;;14.30;100.00
44140;BME280;29803;51.048;4.686;2023-11-19T03:40:06;100932.88;;;14.20;100.00
44140;BME280;29803;51.048;4.686;2023-11-19T03:42:37;100934.75;;;14.20;100.00
44140;BME280;29803;51.048;4.686;2023-11-19T03:45:09;100938.47;;;14.19;100.00
44140;BME280;29803;51.048;4.686;2023-11-19T03:47:40;100947.13;;;14.14;100.00
44140;BME280;29803;51.048;4.686;2023-11-19T03:50:10;100955.22;;;14.14;100.00
44140;BME280;29803;51.048;4.686;2023-11-19T03:52:42;100961.00;;;14.11;100.00
44140;BME280;29803;51.048;4.686;2023-11-19T03:55:12;100959.41;;;14.17;100.00
44140;BME280;29803;51.048;4.686;2023-11-19T03:57:42;100955.97;;;14.23;100.00
44140;BME280;29803;51.048;4.686;2023-11-19T04:00:13;100951.97;;;14.19;100.00
44140;BME280;29803;51.048;4.686;2023-11-19T04:02:44;100961.28;;;14.16;100.00
44140;BME280;29803;51.048;4.686;2023-11-19T04:05:17;100960.88;;;14.19;100.00
44140;BME280;29803;51.048;4.686;2023-11-19T04:07:49;100953.06;;;14.10;100.00
44140;BME280;29803;51.048;4.686;2023-11-19T04:10:20;100954.94;;;14.09;100.00
44140;BME280;29803;51.048;4.686;2023-11-19T04:12:52;100962.00;;;14.10;100.00
44140;BME280;29803;51.048;4.686;2023-11-19T04:15:23;100960.72;;;14.06;100.00
44140;BME280;29803;51.048;4.686;2023-11-19T04:17:54;100965.44;;;14.04;100.00
44140;BME280;29803;51.048;4.686;2023-11-19T04:20:25;100966.84;;;14.00;100.00
44140;BME280;29803;51.048;4.686;2023-11-19T04:22:56;100973.75;;;14.03;100.00
44140;BME280;29803;51.048;4.686;2023-11-19T04:25:26;100974.38;;;14.05;100.00
44140;BME280;29803;51.048;4.686;2023-11-19T04:27:57;100976.72;;;14.08;100.00
44140;BME280;29803;51.048;4.686;2023-11-19T04:30:27;100975.41;;;13.89;100.00
44140;BME280;29803;51.048;4.686;2023-11-19T04:32:58;100985.16;;;13.90;100.00
44140;BME280;29803;51.048;4.686;2023-11-19T04:35:29;100982.66;;;13.88;100.00
44140;BME280;29803;51.048;4.686;2023-11-19T04:37:59;100973.38;;;13.91;100.00
44140;BME280;29803;51.048;4.686;2023-11-19T04:40:30;100981.72;;;13.81;100.00
44140;BME280;29803;51.048;4.686;2023-11-19T04:43:00;100994.47;;;13.87;100.00
44140;BME280;29803;51.048;4.686;2023-11-19T04:45:31;100988.50;;;13.77;100.00
44140;BME280;29803;51.048;4.686;2023-11-19T04:48:02;100981.06;;;13.79;100.00
44140;BME280;29803;51.048;4.686;2023-11-19T04:50:33;100991.00;;;13.79;100.00
44140;BME280;29803;51.048;4.686;2023-11-19T04:53:03;100981.16;;;13.71;100.00
44140;BME280;29803;51.048;4.686;2023-11-19T04:55:34;100983.09;;;13.62;100.00
44140;BME280;29803;51.048;4.686;2023-11-19T04:58:05;100984.28;;;13.60;100.00
44140;BME280;29803;51.048;4.686;2023-11-19T05:00:35;100980.00;;;13.65;100.00
44140;BME280;29803;51.048;4.686;2023-11-19T05:03:06;100986.72;;;13.69;100.00
44140;BME280;29803;51.048;4.686;2023-11-19T05:05:36;100986.03;;;13.53;100.00
44140;BME280;29803;51.048;4.686;2023-11-19T05:08:07;100993.88;;;13.62;100.00
44140;BME280;29803;51.048;4.686;2023-11-19T05:10:37;100999.06;;;13.64;100.00
44140;BME280;29803;51.048;4.686;2023-11-19T05:13:08;101007.69;;;13.59;100.00
44140;BME280;29803;51.048;4.686;2023-11-19T05:15:38;101006.97;;;13.65;100.00
44140;BME280;29803;51.048;4.686;2023-11-19T05:18:09;101009.38;;;13.60;100.00
44140;BME280;29803;51.048;4.686;2023-11-19T05:20:39;101001.66;;;13.57;100.00
44140;BME280;29803;51.048;4.686;2023-11-19T05:23:10;100997.47;;;13.55;100.00
44140;BME280;29803;51.048;4.686;2023-11-19T05:25:40;100998.97;;;13.57;100.00
44140;BME280;29803;51.048;4.686;2023-11-19T05:28:11;100992.81;;;13.48;100.00
44140;BME280;29803;51.048;4.686;2023-11-19T05:30:41;100989.91;;;13.50;100.00
44140;BME280;29803;51.048;4.686;2023-11-19T05:33:11;100998.38;;;13.47;100.00
44140;BME280;29803;51.048;4.686;2023-11-19T05:35:42;100998.28;;;13.40;100.00
44140;BME280;29803;51.048;4.686;2023-11-19T05:38:12;101013.13;;;13.36;100.00
44140;BME280;29803;51.048;4.686;2023-11-19T05:40:43;101004.97;;;13.44;100.00
44140;BME280;29803;51.048;4.686;2023-11-19T05:43:14;100998.16;;;13.34;100.00
44140;BME280;29803;51.048;4.686;2023-11-19T05:45:45;101006.41;;;13.32;100.00
44140;BME280;29803;51.048;4.686;2023-11-19T05:48:16;101008.63;;;13.29;100.00
44140;BME280;29803;51.048;4.686;2023-11-19T05:50:47;101016.91;;;13.27;100.00
44140;BME280;29803;51.048;4.686;2023-11-19T05:53:19;101007.25;;;13.33;100.00
44140;BME280;29803;51.048;4.686;2023-11-19T05:55:50;101012.69;;;13.25;100.00
44140;BME280;29803;51.048;4.686;2023-11-19T05:58:26;101005.97;;;13.20;100.00
44140;BME280;29803;51.048;4.686;2023-11-19T06:00:58;101006.66;;;13.14;100.00
44140;BME280;29803;51.048;4.686;2023-11-19T06:03:31;100993.00;;;13.24;100.00
44140;BME280;29803;51.048;4.686;2023-11-19T06:06:01;100996.72;;;13.15;100.00
44140;BME280;29803;51.048;4.686;2023-11-19T06:08:32;100998.59;;;13.14;100.00
44140;BME280;29803;51.048;4.686;2023-11-19T06:11:03;100997.75;;;13.14;100.00
44140;BME280;29803;51.048;4.686;2023-11-19T06:13:34;101009.97;;;13.02;100.00
44140;BME280;29803;51.048;4.686;2023-11-19T06:16:04;101010.91;;;13.09;100.00
44140;BME280;29803;51.048;4.686;2023-11-19T06:18:36;101015.84;;;13.05;100.00
44140;BME280;29803;51.048;4.686;2023-11-19T06:21:07;101016.16;;;13.10;100.00
44140;BME280;29803;51.048;4.686;2023-11-19T06:23:37;101019.16;;;13.15;100.00
44140;BME280;29803;51.048;4.686;2023-11-19T06:26:08;101017.63;;;13.13;100.00
44140;BME280;29803;51.048;4.686;2023-11-19T06:28:38;101028.53;;;13.19;100.00
44140;BME280;29803;51.048;4.686;2023-11-19T06:31:09;101020.97;;;13.23;100.00
44140;BME280;29803;51.048;4.686;2023-11-19T06:33:39;101024.97;;;13.27;100.00
44140;BME280;29803;51.048;4.686;2023-11-19T06:36:10;101009.00;;;13.26;100.00
44140;BME280;29803;51.048;4.686;2023-11-19T06:38:40;101014.38;;;13.26;100.00
44140;BME280;29803;51.048;4.686;2023-11-19T06:41:11;101017.53;;;13.29;100.00
44140;BME280;29803;51.048;4.686;2023-11-19T06:43:41;101021.75;;;13.32;100.00
44140;BME280;29803;51.048;4.686;2023-11-19T06:46:18;101006.31;;;13.26;100.00
44140;BME280;29803;51.048;4.686;2023-11-19T06:48:49;101013.06;;;13.21;100.00
44140;BME280;29803;51.048;4.686;2023-11-19T06:51:19;101004.59;;;13.02;100.00
44140;BME280;29803;51.048;4.686;2023-11-19T06:53:50;101012.13;;;13.06;100.00
44140;BME280;29803;51.048;4.686;2023-11-19T06:56:22;101009.44;;;13.06;100.00
44140;BME280;29803;51.048;4.686;2023-11-19T06:58:52;101015.84;;;13.05;100.00
44140;BME280;29803;51.048;4.686;2023-11-19T07:01:23;101019.22;;;12.99;100.00
44140;BME280;29803;51.048;4.686;2023-11-19T07:03:54;101014.88;;;12.98;100.00
44140;BME280;29803;51.048;4.686;2023-11-19T07:06:24;101022.59;;;13.01;100.00
44140;BME280;29803;51.048;4.686;2023-11-19T07:08:55;101025.97;;;12.95;100.00
44140;BME280;29803;51.048;4.686;2023-11-19T07:11:25;101028.66;;;12.95;100.00
44140;BME280;29803;51.048;4.686;2023-11-19T07:13:56;101043.34;;;12.92;100.00
44140;BME280;29803;51.048;4.686;2023-11-19T07:16:26;101031.03;;;12.98;100.00
44140;BME280;29803;51.048;4.686;2023-11-19T07:18:56;101037.41;;;13.05;100.00
44140;BME280;29803;51.048;4.686;2023-11-19T07:21:29;101037.94;;;13.01;100.00
44140;BME280;29803;51.048;4.686;2023-11-19T07:23:59;101038.06;;;12.99;100.00
44140;BME280;29803;51.048;4.686;2023-11-19T07:26:30;101030.19;;;12.98;100.00
44140;BME280;29803;51.048;4.686;2023-11-19T07:29:00;101032.84;;;13.06;100.00
44140;BME280;29803;51.048;4.686;2023-11-19T07:31:32;101027.81;;;13.03;100.00
44140;BME280;29803;51.048;4.686;2023-11-19T07:34:02;101035.34;;;13.07;100.00
44140;BME280;29803;51.048;4.686;2023-11-19T07:36:34;101033.31;;;13.09;100.00
44140;BME280;29803;51.048;4.686;2023-11-19T07:39:06;101033.59;;;13.14;100.00
44140;BME280;29803;51.048;4.686;2023-11-19T07:41:36;101032.56;;;13.24;100.00
44140;BME280;29803;51.048;4.686;2023-11-19T07:44:07;101026.00;;;13.26;100.00
44140;BME280;29803;51.048;4.686;2023-11-19T07:46:38;101028.31;;;13.29;100.00
44140;BME280;29803;51.048;4.686;2023-11-19T07:49:08;101035.69;;;13.35;100.00
44140;BME280;29803;51.048;4.686;2023-11-19T07:51:40;101032.97;;;13.35;100.00
44140;BME280;29803;51.048;4.686;2023-11-19T07:54:10;101038.63;;;13.48;100.00
44140;BME280;29803;51.048;4.686;2023-11-19T07:56:41;101033.91;;;13.51;100.00
44140;BME280;29803;51.048;4.686;2023-11-19T07:59:11;101049.09;;;13.66;100.00
44140;BME280;29803;51.048;4.686;2023-11-19T08:01:42;101040.84;;;13.83;100.00
44140;BME280;29803;51.048;4.686;2023-11-19T08:04:12;101047.00;;;13.77;100.00
44140;BME280;29803;51.048;4.686;2023-11-19T08:06:43;101045.81;;;13.94;100.00
44140;BME280;29803;51.048;4.686;2023-11-19T08:09:13;101053.91;;;14.09;100.00
44140;BME280;29803;51.048;4.686;2023-11-19T08:11:44;101060.38;;;14.22;100.00
44140;BME280;29803;51.048;4.686;2023-11-19T08:14:15;101058.50;;;14.38;100.00
44140;BME280;29803;51.048;4.686;2023-11-19T08:16:45;101051.81;;;14.34;100.00
44140;BME280;29803;51.048;4.686;2023-11-19T08:19:16;101045.56;;;14.33;100.00
44140;BME280;29803;51.048;4.686;2023-11-19T08:21:47;101051.16;;;14.32;100.00
44140;BME280;29803;51.048;4.686;2023-11-19T08:24:19;101042.31;;;14.23;100.00
44140;BME280;29803;51.048;4.686;2023-11-19T08:26:50;101048.66;;;14.60;100.00
44140;BME280;29803;51.048;4.686;2023-11-19T08:29:20;101059.72;;;14.65;100.00
44140;BME280;29803;51.048;4.686;2023-11-19T08:31:51;101045.84;;;14.68;100.00
44140;BME280;29803;51.048;4.686;2023-11-19T08:34:22;101048.53;;;14.83;100.00
44140;BME280;29803;51.048;4.686;2023-11-19T08:36:53;101043.00;;;14.91;100.00
44140;BME280;29803;51.048;4.686;2023-11-19T08:39:24;101043.56;;;15.01;100.00
44140;BME280;29803;51.048;4.686;2023-11-19T08:41:54;101061.19;;;14.97;100.00
44140;BME280;29803;51.048;4.686;2023-11-19T08:44:25;101063.28;;;15.38;100.00
44140;BME280;29803;51.048;4.686;2023-11-19T08:46:56;101053.88;;;15.34;100.00
44140;BME280;29803;51.048;4.686;2023-11-19T08:49:27;101048.38;;;15.42;100.00
44140;BME280;29803;51.048;4.686;2023-11-19T08:51:57;101051.94;;;15.06;100.00
44140;BME280;29803;51.048;4.686;2023-11-19T08:54:28;101050.34;;;15.12;100.00
44140;BME280;29803;51.048;4.686;2023-11-19T08:56:58;101051.97;;;15.27;100.00
44140;BME280;29803;51.048;4.686;2023-11-19T08:59:30;101055.03;;;15.24;100.00
44140;BME280;29803;51.048;4.686;2023-11-19T09:02:00;101046.19;;;14.94;100.00
44140;BME280;29803;51.048;4.686;2023-11-19T09:04:32;101053.09;;;14.82;100.00
44140;BME280;29803;51.048;4.686;2023-11-19T09:07:02;101068.03;;;14.48;100.00
44140;BME280;29803;51.048;4.686;2023-11-19T09:09:33;101057.00;;;14.35;100.00
44140;BME280;29803;51.048;4.686;2023-11-19T09:12:06;101052.00;;;14.32;100.00
44140;BME280;29803;51.048;4.686;2023-11-19T09:14:36;101069.56;;;14.28;100.00
44140;BME280;29803;51.048;4.686;2023-11-19T09:17:07;101050.03;;;14.11;100.00
44140;BME280;29803;51.048;4.686;2023-11-19T09:19:39;101056.44;;;14.25;100.00
44140;BME280;29803;51.048;4.686;2023-11-19T09:22:09;101054.47;;;14.93;100.00
44140;BME280;29803;51.048;4.686;2023-11-19T09:24:40;101044.16;;;15.18;100.00
44140;BME280;29803;51.048;4.686;2023-11-19T09:27:11;101053.50;;;15.58;100.00
44140;BME280;29803;51.048;4.686;2023-11-19T09:29:42;101069.72;;;15.58;100.00
44140;BME280;29803;51.048;4.686;2023-11-19T09:32:13;101055.53;;;15.99;100.00
44140;BME280;29803;51.048;4.686;2023-11-19T09:34:44;101053.63;;;15.93;100.00
44140;BME280;29803;51.048;4.686;2023-11-19T09:37:14;101035.38;;;16.01;100.00
44140;BME280;29803;51.048;4.686;2023-11-19T09:39:45;101047.63;;;15.97;100.00
44140;BME280;29803;51.048;4.686;2023-11-19T09:42:16;101046.94;;;15.89;100.00
44140;BME280;29803;51.048;4.686;2023-11-19T09:44:49;101042.69;;;15.79;100.00
44140;BME280;29803;51.048;4.686;2023-11-19T09:47:19;101044.34;;;15.80;100.00
44140;BME280;29803;51.048;4.686;2023-11-19T09:49:51;101042.69;;;15.79;100.00
44140;BME280;29803;51.048;4.686;2023-11-19T09:52:22;101040.53;;;15.68;100.00
44140;BME280;29803;51.048;4.686;2023-11-19T09:54:54;101050.06;;;15.64;100.00
44140;BME280;29803;51.048;4.686;2023-11-19T09:57:25;101051.97;;;15.70;100.00
44140;BME280;29803;51.048;4.686;2023-11-19T09:59:57;101049.38;;;15.62;100.00
44140;BME280;29803;51.048;4.686;2023-11-19T10:02:31;101049.84;;;15.66;100.00
44140;BME280;29803;51.048;4.686;2023-11-19T10:05:06;101048.63;;;15.68;100.00
44140;BME280;29803;51.048;4.686;2023-11-19T10:07:37;101047.91;;;15.38;100.00
44140;BME280;29803;51.048;4.686;2023-11-19T10:10:08;101050.66;;;15.02;100.00
44140;BME280;29803;51.048;4.686;2023-11-19T10:12:41;101046.47;;;14.85;100.00
44140;BME280;29803;51.048;4.686;2023-11-19T10:15:19;101037.28;;;14.64;100.00
44140;BME280;29803;51.048;4.686;2023-11-19T10:17:51;101042.50;;;14.36;100.00
44140;BME280;29803;51.048;4.686;2023-11-19T10:20:22;101027.34;;;14.50;100.00
44140;BME280;29803;51.048;4.686;2023-11-19T10:22:53;101031.50;;;14.38;100.00
44140;BME280;29803;51.048;4.686;2023-11-19T10:25:27;101047.34;;;14.41;100.00
44140;BME280;29803;51.048;4.686;2023-11-19T10:27:58;101045.50;;;14.56;100.00
44140;BME280;29803;51.048;4.686;2023-11-19T10:30:30;101044.66;;;14.56;100.00
44140;BME280;29803;51.048;4.686;2023-11-19T10:33:03;101048.47;;;14.76;100.00
44140;BME280;29803;51.048;4.686;2023-11-19T10:35:50;101069.13;;;14.84;100.00
44140;BME280;29803;51.048;4.686;2023-11-19T10:38:24;101059.59;;;15.02;100.00
44140;BME280;29803;51.048;4.686;2023-11-19T10:40:55;101058.94;;;14.86;100.00
44140;BME280;29803;51.048;4.686;2023-11-19T10:43:25;101050.53;;;14.95;100.00
44140;BME280;29803;51.048;4.686;2023-11-19T10:46:10;101048.00;;;15.09;100.00
44140;BME280;29803;51.048;4.686;2023-11-19T10:48:41;101047.78;;;14.89;100.00
44140;BME280;29803;51.048;4.686;2023-11-19T10:51:13;101046.13;;;14.73;100.00
44140;BME280;29803;51.048;4.686;2023-11-19T10:53:49;101032.56;;;14.66;100.00
44140;BME280;29803;51.048;4.686;2023-11-19T10:56:25;101035.81;;;14.76;100.00
44140;BME280;29803;51.048;4.686;2023-11-19T10:58:56;101047.31;;;14.85;100.00
44140;BME280;29803;51.048;4.686;2023-11-19T11:01:43;101045.19;;;14.66;100.00
44140;BME280;29803;51.048;4.686;2023-11-19T11:04:20;101035.97;;;14.75;100.00
44140;BME280;29803;51.048;4.686;2023-11-19T11:06:54;101047.72;;;14.82;100.00
44140;BME280;29803;51.048;4.686;2023-11-19T11:09:26;101045.06;;;14.89;100.00
44140;BME280;29803;51.048;4.686;2023-11-19T11:11:58;101041.28;;;14.83;100.00
44140;BME280;29803;51.048;4.686;2023-11-19T11:14:30;101028.53;;;14.77;100.00
44140;BME280;29803;51.048;4.686;2023-11-19T11:17:03;101033.13;;;14.98;100.00
44140;BME280;29803;51.048;4.686;2023-11-19T11:19:34;101025.03;;;14.98;100.00
44140;BME280;29803;51.048;4.686;2023-11-19T11:22:06;101034.81;;;14.99;100.00
44140;BME280;29803;51.048;4.686;2023-11-19T11:24:41;101023.22;;;15.05;100.00
44140;BME280;29803;51.048;4.686;2023-11-19T11:27:34;101020.97;;;14.87;100.00
44140;BME280;29803;51.048;4.686;2023-11-19T11:30:31;101017.56;;;15.00;100.00
44140;BME280;29803;51.048;4.686;2023-11-19T11:38:22;101006.97;;;15.20;100.00
44140;BME280;29803;51.048;4.686;2023-11-19T11:41:19;100987.94;;;15.28;100.00
44140;BME280;29803;51.048;4.686;2023-11-19T11:43:52;101002.25;;;15.50;100.00
44140;BME280;29803;51.048;4.686;2023-11-19T11:49:08;100987.38;;;15.61;100.00
44140;BME280;29803;51.048;4.686;2023-11-19T12:02:13;100965.44;;;15.49;100.00
44140;BME280;29803;51.048;4.686;2023-11-19T12:04:51;100971.47;;;15.51;100.00
44140;BME280;29803;51.048;4.686;2023-11-19T12:07:23;100981.09;;;15.32;100.00
44140;BME280;29803;51.048;4.686;2023-11-19T12:10:08;100988.69;;;15.43;100.00
44140;BME280;29803;51.048;4.686;2023-11-19T12:12:41;100993.91;;;15.23;100.00
44140;BME280;29803;51.048;4.686;2023-11-19T12:15:12;100981.28;;;15.09;100.00
44140;BME280;29803;51.048;4.686;2023-11-19T12:17:49;100990.47;;;14.93;100.00
44140;BME280;29803;51.048;4.686;2023-11-19T12:20:20;100993.66;;;14.97;100.00
44140;BME280;29803;51.048;4.686;2023-11-19T12:22:52;100990.72;;;14.77;100.00
44140;BME280;29803;51.048;4.686;2023-11-19T12:25:23;100984.31;;;14.63;100.00
44140;BME280;29803;51.048;4.686;2023-11-19T12:27:54;100981.44;;;14.50;100.00
44140;BME280;29803;51.048;4.686;2023-11-19T12:30:25;100974.06;;;14.44;100.00
44140;BME280;29803;51.048;4.686;2023-11-19T12:32:56;100974.19;;;14.50;100.00
44140;BME280;29803;51.048;4.686;2023-11-19T12:35:27;100962.38;;;14.37;100.00
44140;BME280;29803;51.048;4.686;2023-11-19T12:37:57;100970.06;;;14.40;100.00
44140;BME280;29803;51.048;4.686;2023-11-19T12:40:27;100964.31;;;14.43;100.00
44140;BME280;29803;51.048;4.686;2023-11-19T12:42:59;100956.03;;;14.44;100.00
44140;BME280;29803;51.048;4.686;2023-11-19T12:45:36;100959.84;;;14.35;100.00
44140;BME280;29803;51.048;4.686;2023-11-19T12:48:08;100968.47;;;14.45;100.00
44140;BME280;29803;51.048;4.686;2023-11-19T12:53:25;100960.13;;;14.55;100.00
44140;BME280;29803;51.048;4.686;2023-11-19T12:55:55;100960.56;;;14.73;100.00
44140;BME280;29803;51.048;4.686;2023-11-19T12:58:29;100958.41;;;14.69;100.00
44140;BME280;29803;51.048;4.686;2023-11-19T13:01:06;100971.63;;;14.79;100.00
44140;BME280;29803;51.048;4.686;2023-11-19T13:03:38;100975.03;;;14.87;100.00
44140;BME280;29803;51.048;4.686;2023-11-19T13:06:10;100969.13;;;14.77;100.00
44140;BME280;29803;51.048;4.686;2023-11-19T13:08:44;100976.19;;;14.78;100.00
44140;BME280;29803;51.048;4.686;2023-11-19T13:11:15;100956.72;;;14.83;100.00
44140;BME280;29803;51.048;4.686;2023-11-19T13:14:03;100954.81;;;14.62;100.00
44140;BME280;29803;51.048;4.686;2023-11-19T13:16:36;100960.13;;;14.55;100.00
44140;BME280;29803;51.048;4.686;2023-11-19T13:19:07;100959.66;;;14.66;100.00
44140;BME280;29803;51.048;4.686;2023-11-19T13:21:39;100959.25;;;14.69;100.00
44140;BME280;29803;51.048;4.686;2023-11-19T13:24:09;100967.22;;;14.56;100.00